createdAt,value
2023-04-22T00:01:25.791Z,68.82
2023-04-22T00:03:52.920Z,68.60
2023-04-22T00:06:20.117Z,70.02
2023-04-22T00:08:46.876Z,71.34
2023-04-22T00:11:16.465Z,70.69
2023-04-22T00:13:43.060Z,70.01
2023-04-22T00:16:09.797Z,70.07
2023-04-22T00:18:36.447Z,70.43
2023-04-22T00:21:04.273Z,70.05
2023-04-22T00:23:30.903Z,69.60
2023-04-22T00:25:57.616Z,71.34
2023-04-22T00:28:24.389Z,69.79
2023-04-22T00:30:51.032Z,68.66
2023-04-22T00:33:17.894Z,68.96
2023-04-22T00:35:46.387Z,71.04
2023-04-22T00:38:13.181Z,71.09
2023-04-22T00:40:40.074Z,72.42
2023-04-22T00:43:09.005Z,71.14
2023-04-22T00:45:37.537Z,69.53
2023-04-22T00:48:04.622Z,69.78
2023-04-22T00:50:31.603Z,70.76
2023-04-22T00:52:58.219Z,71.84
2023-04-22T00:55:25.277Z,70.07
2023-04-22T00:57:52.467Z,71.52
2023-04-22T01:00:20.071Z,72.03
2023-04-22T01:02:48.119Z,72.42
2023-04-22T01:05:15.394Z,71.66
2023-04-22T01:07:42.169Z,72.39
2023-04-22T01:10:09.286Z,70.54
2023-04-22T01:12:35.935Z,70.59
2023-04-22T01:15:04.653Z,74.43
2023-04-22T01:17:32.202Z,75.48
2023-04-22T01:19:59.022Z,74.17
2023-04-22T01:22:27.095Z,74.01
2023-04-22T01:24:54.491Z,73.56
2023-04-22T01:27:21.297Z,73.80
2023-04-22T01:29:48.452Z,73.45
2023-04-22T01:32:15.543Z,73.24
2023-04-22T01:34:42.341Z,72.25
2023-04-22T01:37:09.225Z,73.56
2023-04-22T01:39:36.061Z,72.79
2023-04-22T01:42:03.273Z,71.97
2023-04-22T01:44:29.986Z,73.06
2023-04-22T01:46:56.703Z,73.30
2023-04-22T01:49:23.300Z,73.12
2023-04-22T01:51:50.005Z,73.44
2023-04-22T01:54:16.637Z,73.87
2023-04-22T01:56:50.289Z,73.91
2023-04-22T01:59:17.096Z,73.83
2023-04-22T02:01:43.894Z,73.06
2023-04-22T02:04:10.631Z,73.08
2023-04-22T02:06:37.333Z,71.56
2023-04-22T02:09:04.069Z,73.07
2023-04-22T02:11:30.938Z,72.42
2023-04-22T02:13:57.966Z,71.97
2023-04-22T02:16:24.706Z,70.91
2023-04-22T02:18:51.372Z,71.97
2023-04-22T02:21:17.996Z,71.26
2023-04-22T02:23:44.745Z,71.46
2023-04-22T02:26:11.392Z,70.51
2023-04-22T02:28:38.140Z,70.12
2023-04-22T02:31:04.817Z,69.92
2023-04-22T02:33:31.731Z,70.95
2023-04-22T02:35:58.426Z,70.32
2023-04-22T02:38:25.123Z,70.28
2023-04-22T02:40:51.777Z,70.78
2023-04-22T02:43:18.424Z,72.76
2023-04-22T02:45:45.084Z,72.68
2023-04-22T02:48:11.844Z,71.91
2023-04-22T02:50:38.578Z,71.50
2023-04-22T02:53:05.245Z,71.32
2023-04-22T02:55:31.961Z,72.22
2023-04-22T02:57:58.598Z,72.45
2023-04-22T03:00:25.323Z,72.25
2023-04-22T03:02:52.185Z,71.80
2023-04-22T03:05:19.123Z,71.37
2023-04-22T03:07:45.775Z,70.92
2023-04-22T03:10:12.417Z,71.35
2023-04-22T03:12:39.210Z,71.59
2023-04-22T03:15:06.603Z,72.81
2023-04-22T03:17:33.364Z,71.21
2023-04-22T03:20:00.249Z,72.25
2023-04-22T03:22:26.977Z,72.71
2023-04-22T03:24:53.635Z,72.99
2023-04-22T03:27:20.463Z,73.34
2023-04-22T03:29:47.074Z,73.03
2023-04-22T03:32:13.913Z,72.66
2023-04-22T03:34:40.609Z,73.46
2023-04-22T03:37:07.217Z,74.95
2023-04-22T03:39:33.933Z,75.17
2023-04-22T03:42:00.669Z,74.49
2023-04-22T03:44:27.392Z,74.49
2023-04-22T03:46:54.134Z,76.20
2023-04-22T03:49:21.334Z,75.19
2023-04-22T03:51:47.950Z,75.02
2023-04-22T03:54:14.696Z,74.30
2023-04-22T03:56:41.438Z,75.16
2023-04-22T03:59:08.296Z,75.17
2023-04-22T04:01:34.911Z,76.51
2023-04-22T04:04:01.853Z,76.17
2023-04-22T04:06:28.755Z,75.74
2023-04-22T04:08:55.354Z,75.00
2023-04-22T04:11:22.016Z,76.26
2023-04-22T04:13:48.724Z,74.54
2023-04-22T04:16:15.493Z,73.51
2023-04-22T04:18:42.333Z,73.41
2023-04-22T04:21:09.015Z,73.13
2023-04-22T04:23:35.752Z,74.47
2023-04-22T04:26:02.429Z,75.50
2023-04-22T04:28:29.456Z,74.76
2023-04-22T04:30:56.169Z,75.04
2023-04-22T04:33:22.822Z,77.02
2023-04-22T04:35:49.564Z,76.32
2023-04-22T04:38:16.209Z,76.81
2023-04-22T04:40:42.796Z,79.33
2023-04-22T04:43:09.658Z,76.90
2023-04-22T04:45:36.720Z,78.19
2023-04-22T04:48:03.419Z,79.40
2023-04-22T04:50:30.082Z,80.09
2023-04-22T04:52:56.727Z,80.61
2023-04-22T04:55:23.393Z,80.48
2023-04-22T04:57:50.197Z,79.66
2023-04-22T05:00:17.071Z,81.00
2023-04-22T05:02:43.914Z,80.87
2023-04-22T05:05:10.834Z,81.15
2023-04-22T05:07:37.567Z,79.35
2023-04-22T05:10:04.682Z,80.40
2023-04-22T05:12:31.332Z,80.51
2023-04-22T05:14:58.239Z,82.32
2023-04-22T05:17:25.312Z,81.19
2023-04-22T05:19:51.972Z,81.39
2023-04-22T05:22:18.786Z,80.03
2023-04-22T05:24:45.437Z,78.03
2023-04-22T05:27:12.367Z,78.49
2023-04-22T05:29:41.426Z,79.18
2023-04-22T05:32:08.560Z,79.93
2023-04-22T05:34:35.986Z,79.52
2023-04-22T05:37:03.845Z,80.93
2023-04-22T05:39:30.590Z,80.11
2023-04-22T05:41:57.472Z,80.63
2023-04-22T05:44:24.130Z,80.04
2023-04-22T05:46:50.817Z,79.40
2023-04-22T05:49:17.502Z,78.57
2023-04-22T05:51:44.193Z,77.58
2023-04-22T05:54:10.870Z,77.53
2023-04-22T05:56:37.515Z,75.68
2023-04-22T05:59:04.261Z,76.13
2023-04-22T06:01:31.177Z,72.79
2023-04-22T06:03:58.120Z,73.28
2023-04-22T06:06:24.915Z,71.31
2023-04-22T06:08:51.593Z,70.44
2023-04-22T06:11:18.527Z,69.51
2023-04-22T06:13:45.348Z,69.28
2023-04-22T06:16:12.166Z,68.97
2023-04-22T06:18:38.854Z,65.53
2023-04-22T06:21:05.685Z,63.58
2023-04-22T06:23:32.436Z,63.35
2023-04-22T06:25:59.123Z,64.79
2023-04-22T06:28:25.726Z,61.52
2023-04-22T06:30:52.423Z,63.11
2023-04-22T06:33:19.112Z,62.74
2023-04-22T06:35:45.864Z,57.72
2023-04-22T06:38:12.527Z,58.92
2023-04-22T06:40:39.255Z,60.76
2023-04-22T06:43:05.900Z,57.32
2023-04-22T06:45:32.582Z,51.10
2023-04-22T06:47:59.365Z,51.23
2023-04-22T06:50:26.169Z,46.50
2023-04-22T06:52:55.024Z,44.20
2023-04-22T06:55:21.851Z,46.46
2023-04-22T06:57:48.645Z,45.43
2023-04-22T07:00:15.778Z,46.66
2023-04-22T07:02:42.608Z,43.97
2023-04-22T07:05:09.485Z,42.67
2023-04-22T07:07:36.231Z,46.30
2023-04-22T07:10:02.929Z,46.48
2023-04-22T07:12:29.855Z,39.50
2023-04-22T07:14:56.572Z,41.54
2023-04-22T07:17:23.215Z,45.31
2023-04-22T07:19:49.859Z,42.46
2023-04-22T07:22:16.502Z,41.42
2023-04-22T07:24:43.349Z,41.70
2023-04-22T07:27:10.138Z,43.32
2023-04-22T07:29:37.148Z,40.99
2023-04-22T07:32:04.030Z,41.84
2023-04-22T07:34:30.736Z,38.29
2023-04-22T07:36:57.519Z,41.35
2023-04-22T07:39:24.164Z,43.21
2023-04-22T07:41:50.985Z,42.98
2023-04-22T07:44:17.669Z,41.30
2023-04-22T07:46:44.369Z,41.60
2023-04-22T07:49:10.994Z,41.39
2023-04-22T07:51:37.714Z,42.44
2023-04-22T07:54:04.373Z,42.27
2023-04-22T07:56:31.093Z,40.43
2023-04-22T07:58:57.705Z,40.38
2023-04-22T08:01:24.432Z,43.36
2023-04-22T08:03:51.490Z,39.72
2023-04-22T08:06:18.496Z,38.42
2023-04-22T08:08:45.154Z,42.66
2023-04-22T08:11:11.833Z,38.79
2023-04-22T08:13:38.500Z,38.88
2023-04-22T08:16:05.662Z,39.05
2023-04-22T08:18:32.524Z,40.44
2023-04-22T08:20:59.247Z,38.83
2023-04-22T08:23:25.986Z,39.89
2023-04-22T08:25:52.706Z,36.30
2023-04-22T08:28:19.420Z,38.15
2023-04-22T08:30:46.097Z,36.54
2023-04-22T08:33:12.733Z,36.44
2023-04-22T08:35:40.586Z,36.90
2023-04-22T08:38:07.181Z,36.80
2023-04-22T08:40:35.539Z,37.63
2023-04-22T08:43:02.756Z,35.36
2023-04-22T08:45:30.117Z,38.07
2023-04-22T08:47:57.469Z,35.97
2023-04-22T08:50:24.110Z,33.87
2023-04-22T08:52:50.798Z,35.97
2023-04-22T08:55:17.589Z,33.40
2023-04-22T08:57:45.050Z,35.44
2023-04-22T09:00:12.096Z,39.73
2023-04-22T09:02:42.069Z,36.96
2023-04-22T09:05:10.511Z,36.20
2023-04-22T09:07:38.555Z,38.85
2023-04-22T09:10:05.827Z,35.87
2023-04-22T09:12:32.485Z,36.14
2023-04-22T09:14:59.327Z,34.86
2023-04-22T09:17:33.966Z,30.94
2023-04-22T09:20:03.164Z,31.90
2023-04-22T09:22:38.890Z,37.77
2023-04-22T09:25:05.976Z,34.85
2023-04-22T09:27:32.635Z,33.05
2023-04-22T09:29:59.248Z,35.89
2023-04-22T09:34:54.455Z,35.50
2023-04-22T09:37:33.256Z,33.54
2023-04-22T09:40:09.603Z,32.14
2023-04-22T09:42:51.562Z,33.84
2023-04-22T09:45:29.352Z,36.43
2023-04-22T09:47:57.430Z,35.01
2023-04-22T09:50:28.951Z,31.19
2023-04-22T09:53:16.786Z,31.84
2023-04-22T09:55:46.640Z,31.85
2023-04-22T09:58:15.821Z,32.58
2023-04-22T10:00:45.299Z,34.68
2023-04-22T10:03:12.008Z,34.27
2023-04-22T10:05:38.938Z,31.09
2023-04-22T10:08:06.924Z,33.99
2023-04-22T10:10:34.554Z,32.86
2023-04-22T10:13:02.083Z,36.47
2023-04-22T10:15:35.065Z,34.00
2023-04-22T10:18:03.533Z,34.84
2023-04-22T10:20:32.057Z,32.73
2023-04-22T10:22:58.650Z,31.63
2023-04-22T10:25:26.352Z,32.72
2023-04-22T10:28:03.799Z,29.40
2023-04-22T10:30:33.083Z,31.74
2023-04-22T10:33:21.642Z,32.17
2023-04-22T10:36:06.567Z,30.97
2023-04-22T10:38:38.993Z,34.25
2023-04-22T10:41:05.704Z,32.99
2023-04-22T10:43:47.857Z,32.21
2023-04-22T10:46:32.931Z,33.66
2023-04-22T10:49:06.877Z,34.48
2023-04-22T10:51:43.708Z,33.14
2023-04-22T10:54:31.596Z,32.63
2023-04-22T10:57:09.648Z,30.34
2023-04-22T10:59:44.140Z,30.89
2023-04-22T11:02:13.881Z,32.94
2023-04-22T11:04:40.797Z,30.47
2023-04-22T11:07:19.711Z,31.05
2023-04-22T11:09:50.764Z,31.94
2023-04-22T11:12:37.692Z,34.67
2023-04-22T11:15:14.878Z,35.28
2023-04-22T11:17:46.818Z,32.73
2023-04-22T11:20:15.284Z,32.21
2023-04-22T11:22:43.863Z,34.91
2023-04-22T11:25:10.985Z,33.25
2023-04-22T11:27:38.900Z,35.51
2023-04-22T11:30:13.470Z,34.86
2023-04-22T11:32:45.468Z,32.71
2023-04-22T11:35:24.049Z,32.35
2023-04-22T11:38:04.992Z,31.77
2023-04-22T11:40:39.413Z,31.02
2023-04-22T11:43:09.064Z,35.07
2023-04-22T11:45:37.356Z,34.15
2023-04-22T11:48:07.373Z,35.66
2023-04-22T11:50:36.269Z,37.25
2023-04-22T11:53:05.453Z,31.94
2023-04-22T11:55:34.674Z,29.66
2023-04-22T11:58:07.879Z,31.18
2023-04-22T12:00:36.370Z,30.17
2023-04-22T12:03:06.734Z,30.80
2023-04-22T12:05:39.007Z,31.12
2023-04-22T12:08:22.978Z,30.95
2023-04-22T12:10:55.556Z,31.84
2023-04-22T12:13:23.732Z,31.91
2023-04-22T12:15:55.290Z,31.15
2023-04-22T12:18:52.007Z,31.99
2023-04-22T12:21:26.005Z,30.06
2023-04-22T12:23:55.086Z,29.72
2023-04-22T12:26:26.694Z,30.19
2023-04-22T12:28:56.098Z,29.30
2023-04-22T12:31:23.007Z,29.70
2023-04-22T12:33:50.202Z,30.48
2023-04-22T12:36:18.621Z,30.66
2023-04-22T12:38:45.245Z,30.06
2023-04-22T12:41:11.881Z,30.94
2023-04-22T12:43:38.753Z,32.69
2023-04-22T12:46:07.303Z,29.44
2023-04-22T12:48:35.235Z,31.83
2023-04-22T12:51:01.897Z,32.38
2023-04-22T12:53:28.839Z,31.15
2023-04-22T12:55:56.043Z,33.13
2023-04-22T12:58:23.100Z,30.08
2023-04-22T13:00:49.749Z,30.17
2023-04-22T13:03:16.605Z,30.96
2023-04-22T13:05:45.052Z,31.25
2023-04-22T13:08:11.868Z,36.10
2023-04-22T13:10:38.521Z,29.68
2023-04-22T13:15:35.028Z,32.10
2023-04-22T13:18:02.506Z,29.57
2023-04-22T13:20:29.341Z,29.49
2023-04-22T13:22:56.044Z,32.28
2023-04-22T13:25:22.806Z,33.41
2023-04-22T13:27:49.497Z,30.17
2023-04-22T13:30:16.354Z,30.09
2023-04-22T13:32:43.229Z,29.36
2023-04-22T13:35:09.857Z,31.55
2023-04-22T13:37:36.749Z,28.54
2023-04-22T13:40:04.398Z,29.10
2023-04-22T13:42:31.081Z,29.67
2023-04-22T13:44:57.778Z,29.33
2023-04-22T13:47:24.504Z,29.31
2023-04-22T13:49:51.196Z,29.29
2023-04-22T13:52:17.899Z,28.92
2023-04-22T13:54:44.617Z,29.82
2023-04-22T13:57:11.268Z,30.76
2023-04-22T13:59:37.903Z,30.48
2023-04-22T14:02:04.672Z,31.97
2023-04-22T14:04:31.392Z,34.51
2023-04-22T14:06:58.190Z,29.86
2023-04-22T14:09:24.815Z,31.07
2023-04-22T14:11:51.708Z,30.74
2023-04-22T14:14:18.370Z,30.91
2023-04-22T14:16:45.074Z,31.07
2023-04-22T14:19:11.813Z,31.50
2023-04-22T14:21:38.446Z,31.18
2023-04-22T14:24:05.166Z,31.59
2023-04-22T14:26:31.930Z,32.74
2023-04-22T14:28:58.886Z,34.22
2023-04-22T14:31:26.175Z,33.86
2023-04-22T14:33:52.845Z,34.06
2023-04-22T14:36:19.445Z,32.79
2023-04-22T14:38:46.143Z,33.15
2023-04-22T14:41:13.039Z,34.15
2023-04-22T14:43:39.774Z,34.71
2023-04-22T14:46:06.687Z,35.60
2023-04-22T14:48:33.353Z,34.60
2023-04-22T14:50:59.960Z,34.12
2023-04-22T14:53:26.809Z,31.29
2023-04-22T14:55:53.680Z,32.00
2023-04-22T14:58:20.339Z,33.57
2023-04-22T15:00:47.063Z,33.02
2023-04-22T15:03:14.019Z,33.40
2023-04-22T15:05:40.887Z,33.40
2023-04-22T15:08:07.494Z,33.21
2023-04-22T15:10:34.130Z,34.89
2023-04-22T15:13:00.849Z,30.92
2023-04-22T15:15:27.573Z,33.57
2023-04-22T15:17:54.348Z,31.80
2023-04-22T15:20:21.020Z,31.38
2023-04-22T15:22:49.161Z,31.40
2023-04-22T15:25:18.016Z,30.51
2023-04-22T15:27:45.035Z,30.81
2023-04-22T15:30:11.779Z,32.84
2023-04-22T15:32:38.661Z,33.80
2023-04-22T15:35:07.348Z,32.71
2023-04-22T15:37:34.194Z,33.26
2023-04-22T15:40:00.807Z,33.02
2023-04-22T15:42:27.682Z,33.28
2023-04-22T15:44:54.312Z,33.67
2023-04-22T15:47:21.205Z,33.74
2023-04-22T15:49:47.933Z,32.00
2023-04-22T15:52:14.579Z,34.07
2023-04-22T15:54:41.278Z,32.01
2023-04-22T15:57:07.885Z,33.62
2023-04-22T15:59:34.506Z,33.84
2023-04-22T16:02:01.483Z,33.83
2023-04-22T16:04:28.708Z,34.46
2023-04-22T16:06:55.430Z,34.58
2023-04-22T16:09:22.017Z,33.15
2023-04-22T16:11:48.688Z,34.28
2023-04-22T16:14:15.358Z,34.41
2023-04-22T16:16:43.577Z,34.46
2023-04-22T16:19:10.267Z,33.49
2023-04-22T16:21:37.225Z,34.28
2023-04-22T16:24:03.922Z,35.03
2023-04-22T16:26:30.600Z,35.00
2023-04-22T16:28:57.258Z,35.77
2023-04-22T16:31:23.961Z,36.90
2023-04-22T16:33:53.574Z,36.23
2023-04-22T16:36:20.207Z,37.22
2023-04-22T16:38:46.950Z,38.09
2023-04-22T16:41:13.626Z,38.42
2023-04-22T16:43:41.191Z,38.66
2023-04-22T16:46:08.094Z,38.05
2023-04-22T16:48:34.779Z,38.76
2023-04-22T16:51:01.404Z,38.77
2023-04-22T16:53:28.045Z,39.36
2023-04-22T16:55:54.710Z,39.53
2023-04-22T16:58:21.277Z,38.88
2023-04-22T17:00:47.957Z,40.97
2023-04-22T17:03:14.826Z,40.84
2023-04-22T17:05:41.577Z,40.77
2023-04-22T17:08:08.306Z,41.00
2023-04-22T17:10:35.061Z,38.60
2023-04-22T17:13:01.661Z,38.52
2023-04-22T17:15:28.236Z,38.41
2023-04-22T17:17:54.920Z,39.80
2023-04-22T17:20:21.617Z,40.35
2023-04-22T17:22:48.231Z,39.20
2023-04-22T17:25:14.805Z,38.80
2023-04-22T17:27:41.478Z,41.68
2023-04-22T17:30:08.677Z,41.54
2023-04-22T17:32:35.379Z,39.72
2023-04-22T17:35:02.060Z,38.99
2023-04-22T17:37:28.719Z,39.80
2023-04-22T17:39:55.489Z,41.71
2023-04-22T17:42:23.742Z,42.19
2023-04-22T17:44:53.977Z,42.79
2023-04-22T17:47:20.569Z,42.25
2023-04-22T17:49:47.191Z,41.85
2023-04-22T17:52:13.876Z,43.67
2023-04-22T17:54:40.626Z,43.25
2023-04-22T17:57:07.217Z,42.39
2023-04-22T17:59:33.952Z,42.97
2023-04-22T18:02:01.623Z,41.76
2023-04-22T18:04:28.473Z,42.67
2023-04-22T18:06:55.083Z,43.56
2023-04-22T18:09:21.961Z,43.99
2023-04-22T18:11:48.857Z,44.30
2023-04-22T18:14:15.635Z,44.12
2023-04-22T18:16:42.281Z,44.75
2023-04-22T18:19:08.907Z,45.26
2023-04-22T18:21:36.854Z,46.24
2023-04-22T18:24:05.011Z,45.12
2023-04-22T18:26:31.683Z,43.93
2023-04-22T18:28:58.305Z,44.64
2023-04-22T18:31:25.426Z,46.31
2023-04-22T18:33:52.061Z,47.42
2023-04-22T18:36:18.728Z,46.36
2023-04-22T18:38:45.337Z,45.90
2023-04-22T18:41:11.970Z,45.01
2023-04-22T18:43:38.620Z,43.71
2023-04-22T18:46:05.383Z,45.53
2023-04-22T18:48:32.117Z,45.62
2023-04-22T18:50:58.735Z,44.78
2023-04-22T18:53:25.393Z,43.83
2023-04-22T18:55:52.090Z,44.20
2023-04-22T18:58:18.728Z,44.96
2023-04-22T19:00:45.475Z,45.05
2023-04-22T19:03:12.317Z,44.48
2023-04-22T19:05:39.136Z,44.06
2023-04-22T19:08:05.767Z,44.91
2023-04-22T19:10:32.715Z,45.01
2023-04-22T19:12:59.339Z,44.75
2023-04-22T19:15:26.088Z,45.73
2023-04-22T19:17:52.739Z,46.04
2023-04-22T19:20:19.519Z,47.51
2023-04-22T19:22:46.273Z,47.51
2023-04-22T19:25:12.942Z,47.74
2023-04-22T19:27:39.553Z,47.68
2023-04-22T19:30:06.858Z,47.45
2023-04-22T19:32:33.663Z,46.41
2023-04-22T19:35:03.186Z,46.74
2023-04-22T19:37:30.638Z,47.92
2023-04-22T19:39:57.339Z,47.32
2023-04-22T19:42:23.941Z,47.38
2023-04-22T19:44:50.897Z,45.83
2023-04-22T19:47:17.842Z,46.15
2023-04-22T19:49:44.759Z,47.29
2023-04-22T19:52:11.602Z,46.86
2023-04-22T19:54:40.180Z,47.92
2023-04-22T19:57:07.547Z,47.63
2023-04-22T19:59:34.560Z,47.79
2023-04-22T20:02:01.462Z,48.56
2023-04-22T20:04:28.608Z,49.34
2023-04-22T20:06:55.422Z,49.11
2023-04-22T20:09:22.234Z,49.75
2023-04-22T20:11:48.954Z,50.01
2023-04-22T20:14:16.318Z,49.97
2023-04-22T20:16:43.275Z,50.13
2023-04-22T20:19:10.056Z,50.09
2023-04-22T20:21:36.899Z,51.03
2023-04-22T20:24:04.142Z,50.56
2023-04-22T20:26:32.432Z,51.15
2023-04-22T20:29:00.854Z,51.08
2023-04-22T20:31:27.701Z,52.36
2023-04-22T20:33:54.481Z,51.83
2023-04-22T20:36:21.181Z,51.61
2023-04-22T20:38:49.759Z,53.01
2023-04-22T20:41:17.177Z,52.25
2023-04-22T20:43:43.932Z,51.91
2023-04-22T20:46:10.653Z,52.31
2023-04-22T20:48:37.322Z,52.05
2023-04-22T20:51:04.192Z,53.09
2023-04-22T20:53:30.828Z,52.21
2023-04-22T20:55:57.469Z,51.51
2023-04-22T20:58:24.081Z,51.35
2023-04-22T21:00:50.771Z,51.13
2023-04-22T21:03:18.626Z,51.92
2023-04-22T21:05:46.705Z,50.88
2023-04-22T21:08:25.148Z,51.04
2023-04-22T21:10:54.158Z,52.00
2023-04-22T21:13:21.557Z,53.36
2023-04-22T21:15:58.981Z,53.33
2023-04-22T21:18:26.837Z,53.40
2023-04-22T21:20:56.191Z,53.20
2023-04-22T21:23:26.708Z,53.06
2023-04-22T21:25:57.909Z,52.04
2023-04-22T21:28:24.941Z,53.13
2023-04-22T21:30:51.852Z,52.32
2023-04-22T21:33:18.476Z,52.23
2023-04-22T21:35:45.297Z,52.54
2023-04-22T21:38:12.295Z,53.53
2023-04-22T21:40:39.093Z,53.56
2023-04-22T21:43:05.762Z,53.27
2023-04-22T21:45:32.392Z,53.93
2023-04-22T21:47:59.179Z,53.51
2023-04-22T21:50:26.604Z,53.22
2023-04-22T21:52:53.340Z,53.04
2023-04-22T21:55:20.141Z,53.26
2023-04-22T21:57:47.349Z,52.76
2023-04-22T22:00:14.499Z,53.60
2023-04-22T22:02:48.398Z,54.06
2023-04-22T22:05:16.115Z,54.13
2023-04-22T22:07:43.435Z,53.50
2023-04-22T22:10:15.875Z,53.87
2023-04-22T22:12:42.525Z,54.44
2023-04-22T22:15:09.538Z,54.42
2023-04-22T22:17:36.230Z,54.36
2023-04-22T22:20:02.953Z,55.29
2023-04-22T22:22:29.827Z,55.77
2023-04-22T22:24:56.597Z,55.62
2023-04-22T22:27:23.640Z,55.92
2023-04-22T22:29:50.301Z,57.32
2023-04-22T22:32:17.052Z,57.67
2023-04-22T22:34:43.789Z,56.85
2023-04-22T22:37:10.456Z,57.38
2023-04-22T22:39:37.070Z,58.00
2023-04-22T22:42:03.769Z,57.10
2023-04-22T22:44:30.460Z,56.92
2023-04-22T22:46:57.373Z,58.21
2023-04-22T22:49:24.103Z,56.40
2023-04-22T22:51:50.744Z,57.08
2023-04-22T22:54:17.418Z,57.20
2023-04-22T22:56:44.108Z,58.60
2023-04-22T22:59:10.779Z,58.10
2023-04-22T23:01:38.063Z,58.54
2023-04-22T23:04:05.250Z,58.99
2023-04-22T23:06:32.113Z,58.36
2023-04-22T23:08:59.082Z,58.26
2023-04-22T23:11:25.742Z,58.91
2023-04-22T23:13:52.471Z,57.75
2023-04-22T23:16:19.127Z,58.99
2023-04-22T23:18:46.819Z,58.78
2023-04-22T23:21:14.579Z,58.27
2023-04-22T23:23:41.349Z,59.49
2023-04-22T23:26:08.315Z,57.32
2023-04-22T23:28:35.369Z,58.05
2023-04-22T23:31:03.865Z,57.80
2023-04-22T23:33:31.405Z,59.92
2023-04-22T23:36:00.907Z,59.35
2023-04-22T23:38:27.840Z,59.54
2023-04-22T23:40:54.530Z,61.17
2023-04-22T23:43:21.127Z,60.31
2023-04-22T23:45:47.904Z,59.34
2023-04-22T23:48:14.967Z,61.11
2023-04-22T23:50:41.649Z,61.17
2023-04-22T23:53:08.318Z,61.61
2023-04-22T23:55:35.578Z,61.15
2023-04-22T23:58:02.379Z,61.11
